createdAt,value
2023-01-28T00:01:16.801Z,0.60
2023-01-28T00:03:44.595Z,0.50
2023-01-28T00:06:15.847Z,0.50
2023-01-28T00:08:43.012Z,0.60
2023-01-28T00:11:13.537Z,0.20
2023-01-28T00:13:40.863Z,0.50
2023-01-28T00:16:09.882Z,0.60
2023-01-28T00:18:38.125Z,0.60
2023-01-28T00:21:14.555Z,0.50
2023-01-28T00:23:47.502Z,0.60
2023-01-28T00:26:15.682Z,0.50
2023-01-28T00:28:43.718Z,0.60
2023-01-28T00:31:17.397Z,0.80
2023-01-28T00:33:47.279Z,0.60
2023-01-28T00:36:15.232Z,0.40
2023-01-28T00:38:43.954Z,0.50
2023-01-28T00:41:17.655Z,0.50
2023-01-28T00:43:45.575Z,0.60
2023-01-28T00:46:14.103Z,0.50
2023-01-28T00:48:43.804Z,0.80
2023-01-28T00:51:13.265Z,0.50
2023-01-28T00:53:41.176Z,0.60
2023-01-28T00:56:12.603Z,0.50
2023-01-28T00:58:40.218Z,0.50
2023-01-28T01:01:18.173Z,0.50
2023-01-28T01:03:46.177Z,0.50
2023-01-28T01:06:16.025Z,0.50
2023-01-28T01:08:50.203Z,0.50
2023-01-28T01:11:18.160Z,0.80
2023-01-28T01:13:49.682Z,0.60
2023-01-28T01:16:17.905Z,0.60
2023-01-28T01:18:45.349Z,0.60
2023-01-28T01:21:17.552Z,0.60
2023-01-28T01:23:45.407Z,0.60
2023-01-28T01:26:13.902Z,0.30
2023-01-28T01:28:41.954Z,0.70
2023-01-28T01:31:15.128Z,0.30
2023-01-28T01:33:44.162Z,0.80
2023-01-28T01:36:13.455Z,0.50
2023-01-28T01:38:41.131Z,0.60
2023-01-28T01:41:09.708Z,0.50
2023-01-28T01:43:49.326Z,0.60
2023-01-28T01:46:46.497Z,0.50
2023-01-28T01:49:27.301Z,0.50
2023-01-28T01:52:22.642Z,0.40
2023-01-28T01:54:55.568Z,0.30
2023-01-28T01:57:32.342Z,0.40
2023-01-28T02:00:06.372Z,0.30
2023-01-28T02:02:41.789Z,1.40
2023-01-28T02:05:11.764Z,0.50
2023-01-28T02:07:39.796Z,0.80
2023-01-28T02:10:09.586Z,0.50
2023-01-28T02:12:42.847Z,0.60
2023-01-28T02:15:21.434Z,0.50
2023-01-28T02:17:51.045Z,0.50
2023-01-28T02:20:47.255Z,0.60
2023-01-28T02:23:55.875Z,0.70
2023-01-28T02:26:38.628Z,0.60
2023-01-28T02:29:12.853Z,0.60
2023-01-28T02:31:48.907Z,0.90
2023-01-28T02:34:45.413Z,0.60
2023-01-28T02:37:49.888Z,0.50
2023-01-28T02:40:27.907Z,0.50
2023-01-28T02:42:54.973Z,0.60
2023-01-28T02:45:52.268Z,0.80
2023-01-28T02:48:23.167Z,0.50
2023-01-28T02:51:20.061Z,0.80
2023-01-28T02:54:09.740Z,0.40
2023-01-28T02:57:14.146Z,0.50
2023-01-28T03:00:10.026Z,0.60
2023-01-28T03:02:46.923Z,0.40
2023-01-28T03:05:28.977Z,0.70
2023-01-28T03:07:57.558Z,0.50
2023-01-28T03:10:28.665Z,0.70
2023-01-28T03:13:17.217Z,0.80
2023-01-28T03:16:07.650Z,0.70
2023-01-28T03:19:09.246Z,0.80
2023-01-28T03:22:03.190Z,0.70
2023-01-28T03:25:02.312Z,0.40
2023-01-28T03:28:15.769Z,0.90
2023-01-28T03:31:09.887Z,0.60
2023-01-28T03:33:56.513Z,0.90
2023-01-28T03:36:42.942Z,0.80
2023-01-28T03:39:10.285Z,0.50
2023-01-28T03:41:37.507Z,0.70
2023-01-28T03:44:23.608Z,0.70
2023-01-28T03:46:50.623Z,0.40
2023-01-28T03:49:18.239Z,0.80
2023-01-28T03:51:46.395Z,0.50
2023-01-28T03:54:13.846Z,0.90
2023-01-28T03:56:41.264Z,0.40
2023-01-28T03:59:08.539Z,0.50
2023-01-28T04:01:35.641Z,0.70
2023-01-28T04:04:03.131Z,0.70
2023-01-28T04:06:31.134Z,0.60
2023-01-28T04:08:59.700Z,0.70
2023-01-28T04:11:27.790Z,0.70
2023-01-28T04:13:54.842Z,0.40
2023-01-28T04:16:21.927Z,0.50
2023-01-28T04:18:49.031Z,0.70
2023-01-28T04:21:16.091Z,0.70
2023-01-28T04:23:43.242Z,0.50
2023-01-28T04:26:11.311Z,0.70
2023-01-28T04:28:38.529Z,0.40
2023-01-28T04:31:05.689Z,0.70
2023-01-28T04:33:32.936Z,0.60
2023-01-28T04:36:00.069Z,0.40
2023-01-28T04:38:27.346Z,1.40
2023-01-28T04:40:55.160Z,0.40
2023-01-28T04:43:22.293Z,0.70
2023-01-28T04:45:50.058Z,0.80
2023-01-28T04:48:17.779Z,0.80
2023-01-28T04:50:45.795Z,0.50
2023-01-28T04:53:13.367Z,0.70
2023-01-28T04:55:40.686Z,0.60
2023-01-28T04:58:08.476Z,0.80
2023-01-28T05:00:35.693Z,0.70
2023-01-28T05:03:03.008Z,0.50
2023-01-28T05:05:30.118Z,0.40
2023-01-28T05:07:59.703Z,0.80
2023-01-28T05:10:28.340Z,0.30
2023-01-28T05:12:55.588Z,0.40
2023-01-28T05:15:23.025Z,0.70
2023-01-28T05:17:50.106Z,0.40
2023-01-28T05:20:17.366Z,0.40
2023-01-28T05:22:44.428Z,0.50
2023-01-28T05:25:11.567Z,2.20
2023-01-28T05:27:38.693Z,0.60
2023-01-28T05:30:06.912Z,0.70
2023-01-28T05:32:34.469Z,0.40
2023-01-28T05:35:01.548Z,0.70
2023-01-28T05:37:28.707Z,0.70
2023-01-28T05:39:55.856Z,0.70
2023-01-28T05:42:23.042Z,0.40
2023-01-28T05:44:50.138Z,0.40
2023-01-28T05:47:17.184Z,0.50
2023-01-28T05:49:44.283Z,0.30
2023-01-28T05:52:11.246Z,0.70
2023-01-28T05:54:38.391Z,0.40
2023-01-28T05:57:05.543Z,0.50
2023-01-28T05:59:32.764Z,0.40
2023-01-28T06:01:59.978Z,0.50
2023-01-28T06:04:27.644Z,0.50
2023-01-28T06:06:54.648Z,0.70
2023-01-28T06:09:21.683Z,0.40
2023-01-28T06:11:50.385Z,0.70
2023-01-28T06:14:17.600Z,0.70
2023-01-28T06:16:44.767Z,0.20
2023-01-28T06:19:11.962Z,0.50
2023-01-28T06:21:39.207Z,0.30
2023-01-28T06:24:06.425Z,0.40
2023-01-28T06:26:33.513Z,0.40
2023-01-28T06:29:00.617Z,0.30
2023-01-28T06:31:27.636Z,0.60
2023-01-28T06:33:54.896Z,0.50
2023-01-28T06:36:22.081Z,0.20
2023-01-28T06:38:49.153Z,0.60
2023-01-28T06:41:16.312Z,0.60
2023-01-28T06:43:43.380Z,0.50
2023-01-28T06:46:10.495Z,0.50
2023-01-28T06:48:37.633Z,0.80
2023-01-28T06:51:05.527Z,0.70
2023-01-28T06:53:32.614Z,0.80
2023-01-28T06:55:59.700Z,0.50
2023-01-28T06:58:26.866Z,0.90
2023-01-28T07:00:54.163Z,0.60
2023-01-28T07:03:24.274Z,0.60
2023-01-28T07:05:51.750Z,0.90
2023-01-28T07:08:18.898Z,0.50
2023-01-28T07:10:46.103Z,0.60
2023-01-28T07:13:13.244Z,1.10
2023-01-28T07:15:40.358Z,0.90
2023-01-28T07:18:07.478Z,0.80
2023-01-28T07:20:37.009Z,0.60
2023-01-28T07:23:04.156Z,0.90
2023-01-28T07:25:31.856Z,0.90
2023-01-28T07:27:59.131Z,1.00
2023-01-28T07:30:26.500Z,0.70
2023-01-28T07:32:59.017Z,1.00
2023-01-28T07:35:29.763Z,1.00
2023-01-28T07:37:59.845Z,1.20
2023-01-28T07:40:28.429Z,1.20
2023-01-28T07:42:56.876Z,1.00
2023-01-28T07:45:25.979Z,1.20
2023-01-28T07:47:59.288Z,1.40
2023-01-28T07:50:29.178Z,1.10
2023-01-28T07:52:57.572Z,1.20
2023-01-28T07:55:28.851Z,1.10
2023-01-28T07:58:00.756Z,1.10
2023-01-28T08:00:30.521Z,0.90
2023-01-28T08:03:00.776Z,1.00
2023-01-28T08:05:41.459Z,1.10
2023-01-28T08:08:11.204Z,1.00
2023-01-28T08:10:39.169Z,0.80
2023-01-28T08:13:07.194Z,1.30
2023-01-28T08:15:35.409Z,1.10
2023-01-28T08:18:05.138Z,0.90
2023-01-28T08:20:32.601Z,1.00
2023-01-28T08:23:15.294Z,1.50
2023-01-28T08:25:43.145Z,1.30
2023-01-28T08:28:12.865Z,1.40
2023-01-28T08:30:41.513Z,1.00
2023-01-28T08:33:11.823Z,1.30
2023-01-28T08:35:39.730Z,1.40
2023-01-28T08:38:08.810Z,1.20
2023-01-28T08:40:36.920Z,1.40
2023-01-28T08:43:04.558Z,1.50
2023-01-28T08:45:32.071Z,1.40
2023-01-28T08:48:05.502Z,1.50
2023-01-28T08:50:39.327Z,1.40
2023-01-28T08:53:16.734Z,1.60
2023-01-28T08:55:45.128Z,1.60
2023-01-28T08:58:17.931Z,2.50
2023-01-28T09:00:45.748Z,1.30
2023-01-28T09:03:13.048Z,1.40
2023-01-28T09:05:40.473Z,1.90
2023-01-28T09:08:11.438Z,1.60
2023-01-28T09:10:39.798Z,1.80
2023-01-28T09:13:10.660Z,1.80
2023-01-28T09:15:38.352Z,1.70
2023-01-28T09:18:06.177Z,1.80
2023-01-28T09:20:34.000Z,1.90
2023-01-28T09:23:02.310Z,1.80
2023-01-28T09:25:30.079Z,1.70
2023-01-28T09:27:58.502Z,2.10
2023-01-28T09:30:26.272Z,2.20
2023-01-28T09:32:55.200Z,2.20
2023-01-28T09:35:22.939Z,2.20
2023-01-28T09:37:50.467Z,2.10
2023-01-28T09:40:35.935Z,2.20
2023-01-28T09:43:08.590Z,2.10
2023-01-28T09:45:50.334Z,2.20
2023-01-28T09:48:22.760Z,2.30
2023-01-28T09:50:54.793Z,1.90
2023-01-28T09:53:49.875Z,3.00
2023-01-28T09:56:28.203Z,2.10
2023-01-28T09:58:55.644Z,2.10
2023-01-28T10:02:02.961Z,2.20
2023-01-28T10:05:16.545Z,2.10
2023-01-28T10:08:02.183Z,2.20
2023-01-28T10:10:44.670Z,2.40
2023-01-28T10:13:54.586Z,2.50
2023-01-28T10:16:59.754Z,2.60
2023-01-28T10:19:40.055Z,2.50
2023-01-28T10:22:32.190Z,2.80
2023-01-28T10:25:07.770Z,2.50
2023-01-28T10:27:37.538Z,2.70
2023-01-28T10:30:25.680Z,2.90
2023-01-28T10:33:02.273Z,2.80
2023-01-28T10:35:38.677Z,3.10
2023-01-28T10:38:12.959Z,3.10
2023-01-28T10:40:43.478Z,3.20
2023-01-28T10:43:10.836Z,3.40
2023-01-28T10:46:16.319Z,3.80
2023-01-28T10:48:55.533Z,3.70
2023-01-28T10:51:43.934Z,4.20
2023-01-28T10:54:28.929Z,3.90
2023-01-28T10:57:02.224Z,4.40
2023-01-28T10:59:33.007Z,4.40
2023-01-28T11:02:25.862Z,4.40
2023-01-28T11:05:22.400Z,4.70
2023-01-28T11:07:50.213Z,4.60
2023-01-28T11:10:37.813Z,4.70
2023-01-28T11:13:35.137Z,4.60
2023-01-28T11:16:14.759Z,4.40
2023-01-28T11:18:56.783Z,4.40
2023-01-28T11:21:31.480Z,4.70
2023-01-28T11:24:07.321Z,4.20
2023-01-28T11:26:45.232Z,4.30
2023-01-28T11:29:42.331Z,4.20
2023-01-28T11:32:26.166Z,4.40
2023-01-28T11:35:00.581Z,4.40
2023-01-28T11:37:31.739Z,4.00
2023-01-28T11:40:21.453Z,4.10
2023-01-28T11:42:52.563Z,4.10
2023-01-28T11:45:57.596Z,3.70
2023-01-28T11:48:38.489Z,3.60
2023-01-28T11:51:43.433Z,3.60
2023-01-28T11:54:24.569Z,3.30
2023-01-28T11:57:44.757Z,3.60
2023-01-28T12:00:26.953Z,3.50
2023-01-28T12:03:02.247Z,3.60
2023-01-28T12:06:11.344Z,3.90
2023-01-28T12:09:15.285Z,3.70
2023-01-28T12:12:12.283Z,3.70
2023-01-28T12:14:57.721Z,3.70
2023-01-28T12:18:00.282Z,3.60
2023-01-28T12:20:51.490Z,4.10
2023-01-28T12:24:23.398Z,4.00
2023-01-28T12:27:42.863Z,4.10
2023-01-28T12:30:24.568Z,4.50
2023-01-28T12:33:29.653Z,4.60
2023-01-28T12:36:33.470Z,4.50
2023-01-28T12:39:31.337Z,4.60
2023-01-28T12:42:18.317Z,4.60
2023-01-28T12:44:55.925Z,4.70
2023-01-28T12:47:34.707Z,4.60
2023-01-28T12:50:17.129Z,4.50
2023-01-28T12:52:58.580Z,4.40
2023-01-28T12:55:48.745Z,4.30
2023-01-28T12:58:37.343Z,4.10
2023-01-28T13:01:14.045Z,3.80
2023-01-28T13:03:57.595Z,4.20
2023-01-28T13:06:30.356Z,3.90
2023-01-28T13:09:11.748Z,4.40
2023-01-28T13:11:39.761Z,4.40
2023-01-28T13:14:09.778Z,4.40
2023-01-28T13:16:40.272Z,4.40
2023-01-28T13:19:23.680Z,4.40
2023-01-28T13:21:52.173Z,4.50
2023-01-28T13:24:23.766Z,4.50
2023-01-28T13:26:58.392Z,4.50
2023-01-28T13:29:25.377Z,4.60
2023-01-28T13:31:59.621Z,4.20
2023-01-28T13:34:43.766Z,4.00
2023-01-28T13:37:44.582Z,3.80
2023-01-28T13:40:16.511Z,3.90
2023-01-28T13:42:43.713Z,3.90
2023-01-28T13:45:17.123Z,4.20
2023-01-28T13:48:00.261Z,4.20
2023-01-28T13:50:39.637Z,4.20
2023-01-28T13:53:22.190Z,4.30
2023-01-28T13:55:54.197Z,4.00
2023-01-28T13:59:08.830Z,4.30
2023-01-28T14:02:27.458Z,4.40
2023-01-28T14:05:22.164Z,4.30
2023-01-28T14:08:07.798Z,4.40
2023-01-28T14:11:16.351Z,4.30
2023-01-28T14:14:00.503Z,4.30
2023-01-28T14:16:42.931Z,4.20
2023-01-28T14:19:14.551Z,3.90
2023-01-28T14:21:41.848Z,3.80
2023-01-28T14:24:18.553Z,3.70
2023-01-28T14:27:02.980Z,3.90
2023-01-28T14:29:50.787Z,3.70
2023-01-28T14:32:27.026Z,3.60
2023-01-28T14:34:56.634Z,3.60
2023-01-28T14:37:30.400Z,3.70
2023-01-28T14:40:06.301Z,3.50
2023-01-28T14:42:40.194Z,3.40
2023-01-28T14:45:43.642Z,3.50
2023-01-28T14:48:37.184Z,3.30
2023-01-28T14:51:25.883Z,3.30
2023-01-28T14:54:19.670Z,3.30
2023-01-28T14:57:12.529Z,3.20
2023-01-28T14:59:50.276Z,3.20
2023-01-28T15:02:24.673Z,3.10
2023-01-28T15:04:53.766Z,2.90
2023-01-28T15:07:27.352Z,3.20
2023-01-28T15:10:07.447Z,2.90
2023-01-28T15:12:42.966Z,3.00
2023-01-28T15:15:25.752Z,2.70
2023-01-28T15:17:54.315Z,2.90
2023-01-28T15:20:24.804Z,2.80
2023-01-28T15:22:53.895Z,2.90
2023-01-28T15:25:26.811Z,3.00
2023-01-28T15:28:00.235Z,2.90
2023-01-28T15:30:32.805Z,2.70
2023-01-28T15:33:13.865Z,2.60
2023-01-28T15:35:55.133Z,2.70
2023-01-28T15:38:23.965Z,2.70
2023-01-28T15:41:03.265Z,2.80
2023-01-28T15:43:38.837Z,2.70
2023-01-28T15:46:13.797Z,2.40
2023-01-28T15:48:50.613Z,2.50
2023-01-28T15:51:26.972Z,2.40
2023-01-28T15:54:00.850Z,2.20
2023-01-28T15:56:31.934Z,2.30
2023-01-28T15:59:26.343Z,2.30
2023-01-28T16:02:23.472Z,2.30
2023-01-28T16:05:10.940Z,2.20
2023-01-28T16:07:46.624Z,2.10
2023-01-28T16:10:28.410Z,2.00
2023-01-28T16:13:18.678Z,1.90
2023-01-28T16:15:57.384Z,2.00
2023-01-28T16:18:35.576Z,1.90
2023-01-28T16:21:04.224Z,1.60
2023-01-28T16:23:36.076Z,1.90
2023-01-28T16:26:27.792Z,1.40
2023-01-28T16:28:55.127Z,1.60
2023-01-28T16:31:22.595Z,1.50
2023-01-28T16:33:49.792Z,1.70
2023-01-28T16:36:19.531Z,1.50
2023-01-28T16:38:46.750Z,1.50
2023-01-28T16:41:40.126Z,1.70
2023-01-28T16:44:07.322Z,1.50
2023-01-28T16:46:34.506Z,1.40
2023-01-28T16:49:02.643Z,1.20
2023-01-28T16:51:30.124Z,1.50
2023-01-28T16:53:58.871Z,1.20
2023-01-28T16:56:46.285Z,1.20
2023-01-28T16:59:16.180Z,1.20
2023-01-28T17:01:45.444Z,1.20
2023-01-28T17:04:13.515Z,0.90
2023-01-28T17:06:44.517Z,1.00
2023-01-28T17:09:13.933Z,1.10
2023-01-28T17:11:41.522Z,1.10
2023-01-28T17:14:10.392Z,0.70
2023-01-28T17:16:38.165Z,1.10
2023-01-28T17:19:05.876Z,1.20
2023-01-28T17:21:33.123Z,1.00
2023-01-28T17:24:01.879Z,1.00
2023-01-28T17:26:29.272Z,0.80
2023-01-28T17:28:56.613Z,0.90
2023-01-28T17:31:24.130Z,1.00
2023-01-28T17:33:55.802Z,0.70
2023-01-28T17:36:24.733Z,0.80
2023-01-28T17:38:52.513Z,0.70
2023-01-28T17:41:21.032Z,0.80
2023-01-28T17:43:56.178Z,0.90
2023-01-28T17:46:25.911Z,0.90
2023-01-28T17:48:53.649Z,0.40
2023-01-28T17:51:20.994Z,0.70
2023-01-28T17:53:51.228Z,0.80
2023-01-28T17:56:25.971Z,0.90
2023-01-28T17:58:59.384Z,0.80
2023-01-28T18:01:27.129Z,0.90
2023-01-28T18:03:55.149Z,0.80
2023-01-28T18:06:22.953Z,0.90
2023-01-28T18:08:50.530Z,0.70
2023-01-28T18:11:19.561Z,1.00
2023-01-28T18:13:47.634Z,0.90
2023-01-28T18:16:18.511Z,1.00
2023-01-28T18:18:46.868Z,0.90
2023-01-28T18:21:52.294Z,0.90
2023-01-28T18:24:23.924Z,0.90
2023-01-28T18:26:55.433Z,1.10
2023-01-28T18:29:24.243Z,0.90
2023-01-28T18:31:55.300Z,0.90
2023-01-28T18:34:28.516Z,0.90
2023-01-28T18:36:57.355Z,0.60
2023-01-28T18:39:30.161Z,0.90
2023-01-28T18:41:59.041Z,0.90
2023-01-28T18:44:30.152Z,0.90
2023-01-28T18:46:57.295Z,1.20
2023-01-28T18:49:24.636Z,0.90
2023-01-28T18:51:51.708Z,0.90
2023-01-28T18:54:20.447Z,0.80
2023-01-28T18:56:49.453Z,0.90
2023-01-28T18:59:16.852Z,0.90
2023-01-28T19:01:44.129Z,0.80
2023-01-28T19:04:11.634Z,0.70
2023-01-28T19:06:38.709Z,0.90
2023-01-28T19:09:07.318Z,1.00
2023-01-28T19:11:35.983Z,0.50
2023-01-28T19:14:03.226Z,0.70
2023-01-28T19:16:30.841Z,0.90
2023-01-28T19:19:00.902Z,0.90
2023-01-28T19:21:30.686Z,0.50
2023-01-28T19:24:09.673Z,0.70
2023-01-28T19:26:38.126Z,0.60
2023-01-28T19:29:10.701Z,0.80
2023-01-28T19:31:39.266Z,0.60
2023-01-28T19:34:06.949Z,0.70
2023-01-28T19:36:35.536Z,0.40
2023-01-28T19:39:08.964Z,0.60
2023-01-28T19:41:37.450Z,0.70
2023-01-28T19:44:05.432Z,0.20
2023-01-28T19:46:34.503Z,0.40
2023-01-28T19:49:01.924Z,0.20
2023-01-28T19:51:29.113Z,0.20
2023-01-28T19:53:58.110Z,0.60
2023-01-28T19:56:27.053Z,0.50
2023-01-28T19:58:55.301Z,0.50
2023-01-28T20:01:30.155Z,0.60
2023-01-28T20:04:01.863Z,0.50
2023-01-28T20:06:31.308Z,0.50
2023-01-28T20:09:07.757Z,0.50
2023-01-28T20:11:37.783Z,0.50
2023-01-28T20:14:09.141Z,0.10
2023-01-28T20:16:37.334Z,0.20
2023-01-28T20:19:08.162Z,0.20
2023-01-28T20:21:37.962Z,0.20
2023-01-28T20:24:06.758Z,0.20
2023-01-28T20:26:37.723Z,0.10
2023-01-28T20:29:12.328Z,0.10
2023-01-28T20:31:42.278Z,0.10
2023-01-28T20:34:16.109Z,0.20
2023-01-28T20:36:44.500Z,0.40
2023-01-28T20:39:13.369Z,0.10
2023-01-28T20:41:40.695Z,0.10
2023-01-28T20:44:07.886Z,0.20
2023-01-28T20:46:36.873Z,0.20
2023-01-28T20:49:06.749Z,0.00
2023-01-28T20:51:36.093Z,-0.20
2023-01-28T20:54:03.956Z,0.20
2023-01-28T20:56:31.335Z,0.20
2023-01-28T20:59:05.695Z,0.20
2023-01-28T21:01:35.678Z,0.40
2023-01-28T21:04:05.259Z,0.20
2023-01-28T21:06:33.108Z,0.20
2023-01-28T21:09:01.018Z,0.10
2023-01-28T21:11:28.467Z,0.30
2023-01-28T21:13:56.180Z,0.30
2023-01-28T21:16:26.359Z,0.50
2023-01-28T21:18:53.468Z,0.40
2023-01-28T21:21:29.007Z,0.40
2023-01-28T21:23:59.585Z,0.50
2023-01-28T21:26:27.579Z,0.50
2023-01-28T21:28:56.296Z,0.40
2023-01-28T21:31:27.206Z,0.50
2023-01-28T21:33:58.207Z,1.00
2023-01-28T21:36:26.959Z,0.50
2023-01-28T21:39:02.417Z,0.60
2023-01-28T21:41:30.243Z,0.30
2023-01-28T21:43:58.498Z,0.40
2023-01-28T21:46:29.647Z,0.20
2023-01-28T21:48:59.300Z,2.80
2023-01-28T21:51:38.176Z,0.50
2023-01-28T21:54:12.403Z,0.30
2023-01-28T21:56:39.907Z,0.60
2023-01-28T21:59:25.464Z,0.70
2023-01-28T22:01:52.981Z,0.60
2023-01-28T22:04:20.655Z,0.70
2023-01-28T22:06:47.944Z,0.60
2023-01-28T22:09:15.473Z,0.50
2023-01-28T22:11:44.749Z,0.40
2023-01-28T22:14:12.877Z,1.80
2023-01-28T22:16:40.931Z,0.50
2023-01-28T22:19:08.453Z,0.50
2023-01-28T22:21:41.269Z,0.50
2023-01-28T22:24:22.661Z,0.60
2023-01-28T22:26:50.645Z,0.50
2023-01-28T22:29:19.603Z,0.50
2023-01-28T22:31:49.321Z,0.60
2023-01-28T22:34:17.990Z,0.50
2023-01-28T22:36:46.228Z,0.50
2023-01-28T22:39:16.549Z,0.40
2023-01-28T22:41:45.234Z,0.80
2023-01-28T22:44:12.710Z,0.80
2023-01-28T22:46:39.991Z,0.60
2023-01-28T22:49:07.219Z,1.00
2023-01-28T22:51:36.426Z,0.50
2023-01-28T22:54:04.004Z,0.50
2023-01-28T22:56:31.833Z,0.60
2023-01-28T22:59:02.199Z,0.60
2023-01-28T23:01:30.105Z,0.60
2023-01-28T23:03:57.987Z,0.60
2023-01-28T23:06:27.692Z,0.80
2023-01-28T23:08:56.397Z,0.50
2023-01-28T23:11:27.367Z,0.80
2023-01-28T23:14:19.685Z,2.00
2023-01-28T23:17:05.698Z,0.60
2023-01-28T23:19:52.715Z,0.70
2023-01-28T23:22:51.683Z,0.60
2023-01-28T23:25:20.263Z,0.40
2023-01-28T23:27:47.289Z,0.60
2023-01-28T23:30:15.581Z,0.50
2023-01-28T23:32:51.349Z,0.80
2023-01-28T23:37:47.557Z,0.60
2023-01-28T23:40:16.208Z,0.60
2023-01-28T23:42:51.734Z,0.80
2023-01-28T23:45:20.067Z,0.60
2023-01-28T23:47:48.324Z,0.60
2023-01-28T23:50:16.224Z,1.00
2023-01-28T23:52:43.584Z,0.50
2023-01-28T23:55:10.753Z,0.40
2023-01-28T23:57:38.022Z,0.50
